createdAt,value
2019-01-24T00:00:09.605Z,35.60
2019-01-24T00:01:09.598Z,36.30
2019-01-24T00:02:09.623Z,36.50
2019-01-24T00:03:09.576Z,37.00
2019-01-24T00:04:09.568Z,36.20
2019-01-24T00:05:09.557Z,37.60
2019-01-24T00:06:09.548Z,37.20
2019-01-24T00:07:09.536Z,36.80
2019-01-24T00:08:09.537Z,36.20
2019-01-24T00:09:09.512Z,36.30
2019-01-24T00:10:09.505Z,37.40
2019-01-24T00:11:09.496Z,37.00
2019-01-24T00:12:09.525Z,37.20
2019-01-24T00:13:09.488Z,37.10
2019-01-24T00:14:09.470Z,37.60
2019-01-24T00:15:09.451Z,36.70
2019-01-24T00:16:09.494Z,36.60
2019-01-24T00:17:09.429Z,36.40
2019-01-24T00:18:09.493Z,36.50
2019-01-24T00:19:09.420Z,35.30
2019-01-24T00:20:09.400Z,37.30
2019-01-24T00:21:09.394Z,36.50
2019-01-24T00:22:09.394Z,34.50
2019-01-24T00:23:09.381Z,35.50
2019-01-24T00:24:09.374Z,35.40
2019-01-24T00:25:09.363Z,36.30
2019-01-24T00:26:09.339Z,36.70
2019-01-24T00:28:09.319Z,34.90
2019-01-24T00:29:09.326Z,35.90
2019-01-24T00:30:10.532Z,34.30
2019-01-24T00:31:09.287Z,36.10
2019-01-24T00:32:09.276Z,37.10
2019-01-24T00:33:09.281Z,35.90
2019-01-24T00:34:09.270Z,35.90
2019-01-24T00:35:09.241Z,35.90
2019-01-24T00:36:09.246Z,36.10
2019-01-24T00:37:09.221Z,36.30
2019-01-24T00:38:09.225Z,36.30
2019-01-24T00:39:09.201Z,37.00
2019-01-24T00:40:09.201Z,37.70
2019-01-24T00:41:09.186Z,37.90
2019-01-24T00:42:09.168Z,37.20
2019-01-24T00:43:09.165Z,37.40
2019-01-24T00:44:09.160Z,36.80
2019-01-24T00:45:09.138Z,36.30
2019-01-24T00:46:09.133Z,37.20
2019-01-24T00:47:09.117Z,37.10
2019-01-24T00:48:09.119Z,36.70
2019-01-24T00:49:09.099Z,37.70
2019-01-24T00:50:09.090Z,37.30
2019-01-24T00:51:09.084Z,37.70
2019-01-24T00:52:09.066Z,37.10
2019-01-24T00:53:09.070Z,36.70
2019-01-24T00:54:09.070Z,38.80
2019-01-24T00:55:09.054Z,37.60
2019-01-24T00:56:09.023Z,38.30
2019-01-24T00:57:09.014Z,36.90
2019-01-24T00:58:09.014Z,37.90
2019-01-24T00:59:08.996Z,37.10
2019-01-24T01:00:08.987Z,37.50
2019-01-24T01:01:08.972Z,36.20
2019-01-24T01:02:09.039Z,37.70
2019-01-24T01:03:08.951Z,37.30
2019-01-24T01:04:08.942Z,37.40
2019-01-24T01:05:08.932Z,38.10
2019-01-24T01:06:08.922Z,37.80
2019-01-24T01:07:08.909Z,39.10
2019-01-24T01:08:08.914Z,36.90
2019-01-24T01:09:08.891Z,37.70
2019-01-24T01:10:08.880Z,37.50
2019-01-24T01:11:08.866Z,38.70
2019-01-24T01:12:08.858Z,37.40
2019-01-24T01:13:08.846Z,38.10
2019-01-24T01:14:08.873Z,38.50
2019-01-24T01:15:08.828Z,38.50
2019-01-24T01:16:08.818Z,38.10
2019-01-24T01:17:08.806Z,38.00
2019-01-24T01:18:08.797Z,38.30
2019-01-24T01:19:08.784Z,38.50
2019-01-24T01:20:08.809Z,38.80
2019-01-24T01:21:08.766Z,38.80
2019-01-24T01:22:08.755Z,38.90
2019-01-24T01:23:08.742Z,37.30
2019-01-24T01:24:08.732Z,38.80
2019-01-24T01:25:08.734Z,38.10
2019-01-24T01:26:08.712Z,38.80
2019-01-24T01:27:08.703Z,39.10
2019-01-24T01:28:08.692Z,39.80
2019-01-24T01:29:08.684Z,40.60
2019-01-24T01:30:08.682Z,39.50
2019-01-24T01:31:08.674Z,39.30
2019-01-24T01:32:08.651Z,39.80
2019-01-24T01:33:08.651Z,39.00
2019-01-24T01:34:08.632Z,38.50
2019-01-24T01:35:08.617Z,38.90
2019-01-24T01:36:08.608Z,37.40
2019-01-24T01:37:08.616Z,38.30
2019-01-24T01:38:08.589Z,38.90
2019-01-24T01:39:08.613Z,39.10
2019-01-24T01:40:08.568Z,39.20
2019-01-24T01:41:08.557Z,38.90
2019-01-24T01:42:08.582Z,40.10
2019-01-24T01:43:08.534Z,39.40
2019-01-24T01:44:08.525Z,38.60
2019-01-24T01:45:08.513Z,39.60
2019-01-24T01:46:08.507Z,39.90
2019-01-24T01:47:08.494Z,39.00
2019-01-24T01:48:08.500Z,39.40
2019-01-24T01:49:08.477Z,38.90
2019-01-24T01:50:08.463Z,38.80
2019-01-24T01:51:08.452Z,40.10
2019-01-24T01:52:08.475Z,38.10
2019-01-24T01:53:08.433Z,39.40
2019-01-24T01:54:08.420Z,38.20
2019-01-24T01:55:08.413Z,40.20
2019-01-24T01:56:08.404Z,39.70
2019-01-24T01:57:08.392Z,39.10
2019-01-24T01:58:08.399Z,39.40
2019-01-24T01:59:08.371Z,38.30
2019-01-24T02:00:08.358Z,39.00
2019-01-24T02:01:08.352Z,38.60
2019-01-24T02:02:08.338Z,39.60
2019-01-24T02:03:08.340Z,39.20
2019-01-24T02:04:08.319Z,38.60
2019-01-24T02:05:08.308Z,38.90
2019-01-24T02:06:08.297Z,38.80
2019-01-24T02:07:08.287Z,38.70
2019-01-24T02:08:08.297Z,40.30
2019-01-24T02:09:08.270Z,39.50
2019-01-24T02:10:08.254Z,40.40
2019-01-24T02:11:08.244Z,40.60
2019-01-24T02:12:08.237Z,38.70
2019-01-24T02:13:08.245Z,38.40
2019-01-24T02:14:08.214Z,40.00
2019-01-24T02:15:08.202Z,39.00
2019-01-24T02:16:08.193Z,37.90
2019-01-24T02:17:08.183Z,38.60
2019-01-24T02:18:08.171Z,38.80
2019-01-24T02:19:08.174Z,39.40
2019-01-24T02:20:08.153Z,39.30
2019-01-24T02:21:08.154Z,40.10
2019-01-24T02:22:08.131Z,38.90
2019-01-24T02:23:08.125Z,38.20
2019-01-24T02:24:08.123Z,38.50
2019-01-24T02:25:08.114Z,39.20
2019-01-24T02:26:08.088Z,39.20
2019-01-24T02:27:08.077Z,39.40
2019-01-24T02:28:08.070Z,40.20
2019-01-24T02:29:08.057Z,42.00
2019-01-24T02:30:08.058Z,40.20
2019-01-24T02:31:08.063Z,38.50
2019-01-24T02:32:08.026Z,39.80
2019-01-24T02:33:08.017Z,38.10
2019-01-24T02:34:08.007Z,38.10
2019-01-24T02:35:08.012Z,39.10
2019-01-24T02:36:07.994Z,37.90
2019-01-24T02:37:07.982Z,38.80
2019-01-24T02:38:07.965Z,39.20
2019-01-24T02:39:07.958Z,42.10
2019-01-24T02:40:07.945Z,38.60
2019-01-24T02:41:07.960Z,39.00
2019-01-24T02:42:07.922Z,39.80
2019-01-24T02:43:07.915Z,40.60
2019-01-24T02:44:07.903Z,41.00
2019-01-24T02:45:07.890Z,41.10
2019-01-24T02:46:07.885Z,40.80
2019-01-24T02:47:07.893Z,40.80
2019-01-24T02:48:07.860Z,39.20
2019-01-24T02:49:07.857Z,40.40
2019-01-24T02:50:07.839Z,39.00
2019-01-24T02:51:07.836Z,39.00
2019-01-24T02:52:07.818Z,39.30
2019-01-24T02:53:07.824Z,39.50
2019-01-24T02:54:07.798Z,38.80
2019-01-24T02:55:07.786Z,38.90
2019-01-24T02:56:07.789Z,39.20
2019-01-24T02:57:07.767Z,38.60
2019-01-24T02:58:07.755Z,38.50
2019-01-24T02:59:07.748Z,39.40
2019-01-24T03:00:07.733Z,39.50
2019-01-24T03:01:07.743Z,35.80
2019-01-24T03:02:07.715Z,35.40
2019-01-24T03:03:07.705Z,35.90
2019-01-24T03:04:07.694Z,37.40
2019-01-24T03:05:07.686Z,35.50
2019-01-24T03:06:07.674Z,35.50
2019-01-24T03:07:07.676Z,35.40
2019-01-24T03:08:07.650Z,36.30
2019-01-24T03:09:07.646Z,36.30
2019-01-24T03:10:07.629Z,35.90
2019-01-24T03:11:07.620Z,35.70
2019-01-24T03:12:07.628Z,34.80
2019-01-24T03:13:07.601Z,35.40
2019-01-24T03:14:07.590Z,35.70
2019-01-24T03:15:07.579Z,36.20
2019-01-24T03:16:07.566Z,36.20
2019-01-24T03:17:07.556Z,36.90
2019-01-24T03:18:07.559Z,36.50
2019-01-24T03:19:07.538Z,35.30
2019-01-24T03:20:07.530Z,36.30
2019-01-24T03:21:07.513Z,35.50
2019-01-24T03:22:07.502Z,36.60
2019-01-24T03:23:07.509Z,36.60
2019-01-24T03:24:07.482Z,33.80
2019-01-24T03:25:07.476Z,34.60
2019-01-24T03:26:07.462Z,35.70
2019-01-24T03:27:07.463Z,35.70
2019-01-24T03:28:07.441Z,34.80
2019-01-24T03:29:07.444Z,37.40
2019-01-24T03:30:07.435Z,35.70
2019-01-24T03:31:07.420Z,36.20
2019-01-24T03:32:07.399Z,35.60
2019-01-24T03:33:07.391Z,34.40
2019-01-24T03:34:07.405Z,34.60
2019-01-24T03:35:07.366Z,34.10
2019-01-24T03:36:07.361Z,33.90
2019-01-24T03:37:07.345Z,34.50
2019-01-24T03:38:07.339Z,33.60
2019-01-24T03:39:07.328Z,32.90
2019-01-24T03:40:07.349Z,35.00
2019-01-24T03:41:07.308Z,35.30
2019-01-24T03:42:07.296Z,33.50
2019-01-24T03:43:07.288Z,33.00
2019-01-24T03:44:07.275Z,34.30
2019-01-24T03:45:07.267Z,34.30
2019-01-24T03:46:07.269Z,33.40
2019-01-24T03:47:07.254Z,33.20
2019-01-24T03:48:07.233Z,34.30
2019-01-24T03:49:07.224Z,33.80
2019-01-24T03:50:07.228Z,34.60
2019-01-24T03:51:07.216Z,34.60
2019-01-24T03:52:07.191Z,33.60
2019-01-24T03:53:07.181Z,32.40
2019-01-24T03:54:07.171Z,34.70
2019-01-24T03:55:07.198Z,35.70
2019-01-24T03:56:07.149Z,35.50
2019-01-24T03:57:07.141Z,34.10
2019-01-24T03:58:07.133Z,33.60
2019-01-24T03:59:07.127Z,34.00
2019-01-24T04:00:07.122Z,33.80
2019-01-24T04:01:07.109Z,32.80
2019-01-24T04:02:07.088Z,33.70
2019-01-24T04:03:07.077Z,33.70
2019-01-24T04:04:07.068Z,33.90
2019-01-24T04:05:11.809Z,34.60
2019-01-24T04:06:08.071Z,35.00
2019-01-24T04:07:07.035Z,33.00
2019-01-24T04:08:07.026Z,34.80
2019-01-24T04:09:07.013Z,31.10
2019-01-24T04:10:07.003Z,34.10
2019-01-24T04:11:06.996Z,32.80
2019-01-24T04:12:08.403Z,32.70
2019-01-24T04:13:06.974Z,32.50
2019-01-24T04:14:06.965Z,33.70
2019-01-24T04:15:06.957Z,33.10
2019-01-24T04:16:06.941Z,33.70
2019-01-24T04:17:06.968Z,33.00
2019-01-24T04:18:06.921Z,32.70
2019-01-24T04:19:06.911Z,33.20
2019-01-24T04:20:06.905Z,34.00
2019-01-24T04:21:06.897Z,33.30
2019-01-24T04:22:06.891Z,33.10
2019-01-24T04:23:06.885Z,32.60
2019-01-24T04:24:06.857Z,34.90
2019-01-24T04:25:06.850Z,34.10
2019-01-24T04:26:06.838Z,33.50
2019-01-24T04:27:06.825Z,33.20
2019-01-24T04:28:06.833Z,32.70
2019-01-24T04:29:06.807Z,33.70
2019-01-24T04:30:06.797Z,33.10
2019-01-24T04:31:06.786Z,33.10
2019-01-24T04:32:06.774Z,34.00
2019-01-24T04:33:06.780Z,33.90
2019-01-24T04:34:06.756Z,32.80
2019-01-24T04:35:06.750Z,34.80
2019-01-24T04:36:06.739Z,31.80
2019-01-24T04:37:06.724Z,34.30
2019-01-24T04:38:06.712Z,34.40
2019-01-24T04:39:06.717Z,34.90
2019-01-24T04:40:06.694Z,32.60
2019-01-24T04:41:06.684Z,33.00
2019-01-24T04:42:06.691Z,33.30
2019-01-24T04:43:06.674Z,33.50
2019-01-24T04:44:06.671Z,33.10
2019-01-24T04:45:06.645Z,32.50
2019-01-24T04:46:06.641Z,32.50
2019-01-24T04:47:06.626Z,30.60
2019-01-24T04:48:06.614Z,30.60
2019-01-24T04:49:08.634Z,30.70
2019-01-24T04:50:06.603Z,31.20
2019-01-24T04:51:06.577Z,32.10
2019-01-24T04:52:06.565Z,33.00
2019-01-24T04:53:06.555Z,33.10
2019-01-24T04:54:06.561Z,33.00
2019-01-24T04:55:06.536Z,33.80
2019-01-24T04:56:06.524Z,32.50
2019-01-24T04:57:06.520Z,30.30
2019-01-24T04:58:06.504Z,31.10
2019-01-24T04:59:06.517Z,29.70
2019-01-24T05:00:06.482Z,30.60
2019-01-24T05:01:06.475Z,31.50
2019-01-24T05:02:06.463Z,33.00
2019-01-24T05:03:06.469Z,31.60
2019-01-24T05:04:06.445Z,31.70
2019-01-24T05:05:06.433Z,32.30
2019-01-24T05:06:06.424Z,32.30
2019-01-24T05:07:06.410Z,32.30
2019-01-24T05:08:06.412Z,32.10
2019-01-24T05:09:06.396Z,33.60
2019-01-24T05:10:06.412Z,32.10
2019-01-24T05:11:06.372Z,32.10
2019-01-24T05:12:06.359Z,31.90
2019-01-24T05:13:06.349Z,32.00
2019-01-24T05:14:06.338Z,32.20
2019-01-24T05:15:06.328Z,32.10
2019-01-24T05:16:06.334Z,32.70
2019-01-24T05:17:06.308Z,31.90
2019-01-24T05:18:06.296Z,31.30
2019-01-24T05:19:06.287Z,32.00
2019-01-24T05:20:06.287Z,32.60
2019-01-24T05:21:06.269Z,31.50
2019-01-24T05:22:06.270Z,31.50
2019-01-24T05:23:06.245Z,32.20
2019-01-24T05:24:06.236Z,31.20
2019-01-24T05:25:06.244Z,31.80
2019-01-24T05:26:06.215Z,31.50
2019-01-24T05:27:06.209Z,33.40
2019-01-24T05:28:06.192Z,35.50
2019-01-24T05:29:06.185Z,31.80
2019-01-24T05:30:06.170Z,31.00
2019-01-24T05:31:06.174Z,31.40
2019-01-24T05:32:06.151Z,32.50
2019-01-24T05:33:06.162Z,29.70
2019-01-24T05:34:13.184Z,33.00
2019-01-24T05:35:06.128Z,31.50
2019-01-24T05:36:06.108Z,31.80
2019-01-24T05:37:06.101Z,31.60
2019-01-24T05:38:06.099Z,31.40
2019-01-24T05:39:06.075Z,30.90
2019-01-24T05:40:06.067Z,31.10
2019-01-24T05:41:06.059Z,31.30
2019-01-24T05:42:06.088Z,31.50
2019-01-24T05:43:06.038Z,30.80
2019-01-24T05:44:06.026Z,30.60
2019-01-24T05:45:06.017Z,31.40
2019-01-24T05:46:06.007Z,30.00
2019-01-24T05:47:05.995Z,30.80
2019-01-24T05:48:06.006Z,32.10
2019-01-24T05:49:05.971Z,32.60
2019-01-24T05:50:05.963Z,31.20
2019-01-24T05:51:05.952Z,31.90
2019-01-24T05:52:05.942Z,32.40
2019-01-24T05:53:05.930Z,31.70
2019-01-24T05:54:05.935Z,31.40
2019-01-24T05:55:05.921Z,31.10
2019-01-24T05:56:05.911Z,30.50
2019-01-24T05:57:05.893Z,30.50
2019-01-24T05:58:05.878Z,30.50
2019-01-24T05:59:05.868Z,30.80
2019-01-24T06:00:05.860Z,31.80
2019-01-24T06:01:05.859Z,31.80
2019-01-24T06:02:05.839Z,30.30
2019-01-24T06:03:05.825Z,31.50
2019-01-24T06:04:05.816Z,31.30
2019-01-24T06:05:05.807Z,30.90
2019-01-24T06:06:05.814Z,31.80
2019-01-24T06:07:05.785Z,30.70
2019-01-24T06:08:05.776Z,30.80
2019-01-24T06:09:05.765Z,31.30
2019-01-24T06:10:05.753Z,30.50
2019-01-24T06:11:05.747Z,30.80
2019-01-24T06:12:05.747Z,30.80
2019-01-24T06:13:05.722Z,31.00
2019-01-24T06:14:05.712Z,29.70
2019-01-24T06:15:05.715Z,29.60
2019-01-24T06:16:05.693Z,31.80
2019-01-24T06:17:05.694Z,30.80
2019-01-24T06:18:05.681Z,31.00
2019-01-24T06:19:05.661Z,28.30
2019-01-24T06:20:05.654Z,30.40
2019-01-24T06:21:05.642Z,30.40
2019-01-24T06:22:05.659Z,31.20
2019-01-24T06:23:05.624Z,31.40
2019-01-24T06:24:05.612Z,30.80
2019-01-24T06:25:05.599Z,29.80
2019-01-24T06:26:05.586Z,29.70
2019-01-24T06:27:05.577Z,30.50
2019-01-24T06:28:05.584Z,29.50
2019-01-24T06:29:05.555Z,31.20
2019-01-24T06:30:05.550Z,30.10
2019-01-24T06:31:05.536Z,31.20
2019-01-24T06:32:05.527Z,30.60
2019-01-24T06:33:05.514Z,30.30
2019-01-24T06:34:05.524Z,28.60
2019-01-24T06:35:05.498Z,30.80
2019-01-24T06:36:05.483Z,30.30
2019-01-24T06:37:05.476Z,30.30
2019-01-24T06:38:05.465Z,29.40
2019-01-24T06:39:05.465Z,29.10
2019-01-24T06:40:05.441Z,30.50
2019-01-24T06:41:05.431Z,29.60
2019-01-24T06:42:05.419Z,31.00
2019-01-24T06:43:05.412Z,30.80
2019-01-24T06:44:05.416Z,31.00
2019-01-24T06:45:05.420Z,30.80
2019-01-24T06:46:05.378Z,32.30
2019-01-24T06:47:05.372Z,30.90
2019-01-24T06:48:05.356Z,31.60
2019-01-24T06:49:05.346Z,31.90
2019-01-24T06:50:05.338Z,31.60
2019-01-24T06:51:05.343Z,30.70
2019-01-24T06:52:05.317Z,32.60
2019-01-24T06:53:05.308Z,32.00
2019-01-24T06:54:05.294Z,30.90
2019-01-24T06:55:05.316Z,30.60
2019-01-24T06:56:05.274Z,29.30
2019-01-24T06:57:05.265Z,30.80
2019-01-24T06:58:05.257Z,29.30
2019-01-24T06:59:05.246Z,30.60
2019-01-24T07:00:05.234Z,28.50
2019-01-24T07:01:05.254Z,27.80
2019-01-24T07:02:05.216Z,31.30
2019-01-24T07:03:05.204Z,30.20
2019-01-24T07:04:05.198Z,28.80
2019-01-24T07:05:05.182Z,30.20
2019-01-24T07:06:05.172Z,29.70
2019-01-24T07:07:05.174Z,30.30
2019-01-24T07:08:05.184Z,31.60
2019-01-24T07:09:05.140Z,29.50
2019-01-24T07:10:05.129Z,30.50
2019-01-24T07:11:05.122Z,29.60
2019-01-24T07:12:05.112Z,29.60
2019-01-24T07:13:05.098Z,29.90
2019-01-24T07:14:05.104Z,30.30
2019-01-24T07:15:05.082Z,30.90
2019-01-24T07:16:05.065Z,31.40
2019-01-24T07:17:05.057Z,30.20
2019-01-24T07:18:05.063Z,28.70
2019-01-24T07:19:05.038Z,30.40
2019-01-24T07:20:05.026Z,31.20
2019-01-24T07:21:05.014Z,30.10
2019-01-24T07:22:05.006Z,31.40
2019-01-24T07:23:04.994Z,30.20
2019-01-24T07:24:04.995Z,30.90
2019-01-24T07:25:04.974Z,31.70
2019-01-24T07:26:04.965Z,30.90
2019-01-24T07:27:04.952Z,30.60
2019-01-24T07:28:04.944Z,30.50
2019-01-24T07:29:04.946Z,29.60
2019-01-24T07:30:04.937Z,31.40
2019-01-24T07:31:04.911Z,31.70
2019-01-24T07:32:04.906Z,29.90
2019-01-24T07:33:04.890Z,31.70
2019-01-24T07:34:04.898Z,31.60
2019-01-24T07:35:04.870Z,29.50
2019-01-24T07:36:04.858Z,31.00
2019-01-24T07:37:04.849Z,30.70
2019-01-24T07:38:06.264Z,29.90
2019-01-24T07:39:04.828Z,28.90
2019-01-24T07:40:04.849Z,30.60
2019-01-24T07:41:04.806Z,29.70
2019-01-24T07:42:04.797Z,30.30
2019-01-24T07:43:04.784Z,31.70
2019-01-24T07:44:04.782Z,31.20
2019-01-24T07:45:04.768Z,30.80
2019-01-24T07:46:04.769Z,31.90
2019-01-24T07:47:04.746Z,32.60
2019-01-24T07:48:04.779Z,32.50
2019-01-24T07:49:04.726Z,29.90
2019-01-24T07:50:04.846Z,31.00
2019-01-24T07:51:04.715Z,29.60
2019-01-24T07:52:04.695Z,31.10
2019-01-24T07:53:04.681Z,31.90
2019-01-24T07:54:04.673Z,31.20
2019-01-24T07:55:04.658Z,30.00
2019-01-24T07:56:04.672Z,32.20
2019-01-24T07:57:04.641Z,31.30
2019-01-24T07:58:04.629Z,30.70
2019-01-24T07:59:04.619Z,30.40
2019-01-24T08:00:04.612Z,32.50
2019-01-24T08:01:04.602Z,33.40
2019-01-24T08:02:04.618Z,33.30
2019-01-24T08:03:04.578Z,31.40
2019-01-24T08:04:04.566Z,31.40
2019-01-24T08:05:04.558Z,31.00
2019-01-24T08:06:08.998Z,31.30
2019-01-24T08:07:04.537Z,29.00
2019-01-24T08:08:04.542Z,30.60
2019-01-24T08:09:04.519Z,31.80
2019-01-24T08:10:04.504Z,30.00
2019-01-24T08:11:04.496Z,31.30
2019-01-24T08:12:04.486Z,31.30
2019-01-24T08:13:04.486Z,31.20
2019-01-24T08:14:04.463Z,35.90
2019-01-24T08:15:04.452Z,33.30
2019-01-24T08:16:04.441Z,30.10
2019-01-24T08:17:04.431Z,31.70
2019-01-24T08:18:04.435Z,32.20
2019-01-24T08:19:04.411Z,30.40
2019-01-24T08:20:04.401Z,31.30
2019-01-24T08:21:04.390Z,30.90
2019-01-24T08:22:04.377Z,33.40
2019-01-24T08:23:04.380Z,31.60
2019-01-24T08:24:04.359Z,32.00
2019-01-24T08:25:04.351Z,29.80
2019-01-24T08:26:04.337Z,29.50
2019-01-24T08:27:04.327Z,31.60
2019-01-24T08:28:04.352Z,30.30
2019-01-24T08:29:04.305Z,29.60
2019-01-24T08:30:04.302Z,30.40
2019-01-24T08:31:04.286Z,31.20
2019-01-24T08:32:04.277Z,31.30
2019-01-24T08:33:04.265Z,32.20
2019-01-24T08:34:04.267Z,35.50
2019-01-24T08:35:04.245Z,35.70
2019-01-24T08:36:04.236Z,35.50
2019-01-24T08:37:04.224Z,32.60
2019-01-24T08:38:04.211Z,31.70
2019-01-24T08:39:04.218Z,30.90
2019-01-24T08:40:04.190Z,32.00
2019-01-24T08:41:04.178Z,31.50
2019-01-24T08:42:04.173Z,32.10
2019-01-24T08:43:04.164Z,31.50
2019-01-24T08:44:04.148Z,30.80
2019-01-24T08:45:04.156Z,29.90
2019-01-24T08:46:04.160Z,30.90
2019-01-24T08:47:04.116Z,32.10
2019-01-24T08:48:04.105Z,31.30
2019-01-24T08:49:04.095Z,32.10
2019-01-24T08:50:04.087Z,32.70
2019-01-24T08:51:04.076Z,31.60
2019-01-24T08:52:04.078Z,32.00
2019-01-24T08:53:04.056Z,31.10
2019-01-24T08:54:04.046Z,30.90
2019-01-24T08:55:04.034Z,33.00
2019-01-24T08:56:04.038Z,29.70
2019-01-24T08:57:04.017Z,30.20
2019-01-24T08:58:04.001Z,31.70
2019-01-24T08:59:03.991Z,31.10
2019-01-24T09:00:03.983Z,32.30
2019-01-24T09:01:03.990Z,31.40
2019-01-24T09:02:03.962Z,31.50
2019-01-24T09:03:03.953Z,32.80
2019-01-24T09:04:03.939Z,32.20
2019-01-24T09:05:03.930Z,34.80
2019-01-24T09:06:03.918Z,32.60
2019-01-24T09:07:03.921Z,32.00
2019-01-24T09:08:03.897Z,32.50
2019-01-24T09:09:03.885Z,31.70
2019-01-24T09:10:03.881Z,31.70
2019-01-24T09:11:03.867Z,31.30
2019-01-24T09:12:03.869Z,32.20
2019-01-24T09:13:03.848Z,31.20
2019-01-24T09:14:03.836Z,28.90
2019-01-24T09:15:03.824Z,30.90
2019-01-24T09:16:03.824Z,30.30
2019-01-24T09:17:03.815Z,33.00
2019-01-24T09:18:03.793Z,32.10
2019-01-24T09:19:03.780Z,30.60
2019-01-24T09:20:03.774Z,32.20
2019-01-24T09:21:03.777Z,32.80
2019-01-24T09:22:03.749Z,34.70
2019-01-24T09:23:03.737Z,33.10
2019-01-24T09:24:03.742Z,33.70
2019-01-24T09:25:03.728Z,32.50
2019-01-24T09:26:03.709Z,32.20
2019-01-24T09:27:03.702Z,32.70
2019-01-24T09:28:03.687Z,31.70
2019-01-24T09:29:03.689Z,32.20
2019-01-24T09:30:03.666Z,30.40
2019-01-24T09:31:03.677Z,32.20
2019-01-24T09:32:03.647Z,30.10
2019-01-24T09:33:03.641Z,30.40
2019-01-24T09:34:03.625Z,31.60
2019-01-24T09:35:03.611Z,30.60
2019-01-24T09:36:03.603Z,33.40
2019-01-24T09:37:03.606Z,33.50
2019-01-24T09:38:03.586Z,32.10
2019-01-24T09:39:03.571Z,32.10
2019-01-24T09:40:03.596Z,33.20
2019-01-24T09:41:03.549Z,33.80
2019-01-24T09:42:03.540Z,31.10
2019-01-24T09:43:03.530Z,30.90
2019-01-24T09:44:03.517Z,30.60
2019-01-24T09:45:03.507Z,31.20
2019-01-24T09:46:03.506Z,27.50
2019-01-24T09:47:03.484Z,31.00
2019-01-24T09:48:03.478Z,28.60
2019-01-24T09:49:03.466Z,29.70
2019-01-24T09:50:03.466Z,30.10
2019-01-24T09:51:03.474Z,32.80
2019-01-24T09:52:03.434Z,31.90
2019-01-24T09:53:03.424Z,31.70
2019-01-24T09:54:03.412Z,30.70
2019-01-24T09:55:03.475Z,29.70
2019-01-24T09:56:03.391Z,34.90
2019-01-24T09:57:03.392Z,37.60
2019-01-24T09:58:03.374Z,33.80
2019-01-24T09:59:03.358Z,27.80
2019-01-24T10:00:03.349Z,30.60
2019-01-24T10:01:03.351Z,29.50
2019-01-24T10:02:03.344Z,29.90
2019-01-24T10:03:03.318Z,35.40
2019-01-24T10:04:03.310Z,33.00
2019-01-24T10:05:03.297Z,32.80
2019-01-24T10:06:03.287Z,32.00
2019-01-24T10:07:03.286Z,31.30
2019-01-24T10:08:03.303Z,29.70
2019-01-24T10:09:03.255Z,29.60
2019-01-24T10:10:03.246Z,31.20
2019-01-24T10:11:03.232Z,30.70
2019-01-24T10:12:04.184Z,30.70
2019-01-24T10:13:03.215Z,31.40
2019-01-24T10:14:03.216Z,33.80
2019-01-24T10:15:03.192Z,31.20
2019-01-24T10:16:03.182Z,33.80
2019-01-24T10:17:03.170Z,33.20
2019-01-24T10:18:03.177Z,32.20
2019-01-24T10:19:03.152Z,33.10
2019-01-24T10:20:03.139Z,31.10
2019-01-24T10:21:03.142Z,33.30
2019-01-24T10:22:03.118Z,31.50
2019-01-24T10:23:03.107Z,31.40
2019-01-24T10:24:03.099Z,30.40
2019-01-24T10:25:03.085Z,29.50
2019-01-24T10:26:03.093Z,29.00
2019-01-24T10:27:03.065Z,30.30
2019-01-24T10:28:03.055Z,29.80
2019-01-24T10:29:03.044Z,30.40
2019-01-24T10:30:03.035Z,29.80
2019-01-24T10:31:03.061Z,29.60
2019-01-24T10:32:03.014Z,28.80
2019-01-24T10:33:03.001Z,28.00
2019-01-24T10:34:02.994Z,28.50
2019-01-24T10:35:02.999Z,31.60
2019-01-24T10:36:02.970Z,30.50
2019-01-24T10:37:02.970Z,41.60
2019-01-24T10:38:02.957Z,40.10
2019-01-24T10:39:02.938Z,31.80
2019-01-24T10:40:02.941Z,33.30
2019-01-24T10:41:02.917Z,31.90
2019-01-24T10:42:02.923Z,29.60
2019-01-24T10:43:02.908Z,28.70
2019-01-24T10:44:02.891Z,30.40
2019-01-24T10:45:02.875Z,29.50
2019-01-24T10:46:02.865Z,28.40
2019-01-24T10:47:02.881Z,27.10
2019-01-24T10:48:02.852Z,27.90
2019-01-24T10:49:02.846Z,27.20
2019-01-24T10:50:02.822Z,27.30
2019-01-24T10:51:02.810Z,28.50
2019-01-24T10:52:02.800Z,29.00
2019-01-24T10:53:02.818Z,29.30
2019-01-24T10:54:02.780Z,30.00
2019-01-24T10:55:02.769Z,29.30
2019-01-24T10:56:02.761Z,29.90
2019-01-24T10:57:02.817Z,30.00
2019-01-24T10:58:02.739Z,30.20
2019-01-24T10:59:02.740Z,28.80
2019-01-24T11:00:02.727Z,29.30
2019-01-24T11:01:02.708Z,29.00
2019-01-24T11:02:02.955Z,29.20
2019-01-24T11:03:02.687Z,27.60
2019-01-24T11:04:02.685Z,28.70
2019-01-24T11:05:02.667Z,30.70
2019-01-24T11:06:02.653Z,31.60
2019-01-24T11:07:02.643Z,29.00
2019-01-24T11:08:02.641Z,29.80
2019-01-24T11:09:02.656Z,29.90
2019-01-24T11:10:02.618Z,30.40
2019-01-24T11:11:02.604Z,29.20
2019-01-24T11:12:02.594Z,28.80
2019-01-24T11:13:02.584Z,28.70
2019-01-24T11:14:02.574Z,26.90
2019-01-24T11:15:02.572Z,27.80
2019-01-24T11:16:02.578Z,29.90
2019-01-24T11:17:02.537Z,28.50
2019-01-24T11:18:02.537Z,29.20
2019-01-24T11:19:02.517Z,27.80
2019-01-24T11:20:02.542Z,28.70
2019-01-24T11:21:02.498Z,28.50
2019-01-24T11:22:02.485Z,28.80
2019-01-24T11:23:02.477Z,28.00
2019-01-24T11:24:02.464Z,28.50
2019-01-24T11:25:02.454Z,29.20
2019-01-24T11:26:02.460Z,27.30
2019-01-24T11:27:02.467Z,29.00
2019-01-24T11:28:02.426Z,27.10
2019-01-24T11:29:02.410Z,27.10
2019-01-24T11:30:02.401Z,27.00
2019-01-24T11:31:02.392Z,27.30
2019-01-24T11:32:02.387Z,26.80
2019-01-24T11:33:02.380Z,27.00
2019-01-24T11:34:02.366Z,27.10
2019-01-24T11:35:02.350Z,28.10
2019-01-24T11:36:02.338Z,27.50
2019-01-24T11:37:02.330Z,28.70
2019-01-24T11:38:02.426Z,28.50
2019-01-24T11:39:02.311Z,28.70
2019-01-24T11:40:02.297Z,28.20
2019-01-24T11:41:02.286Z,27.10
2019-01-24T11:42:02.277Z,26.40
2019-01-24T11:43:02.266Z,25.70
2019-01-24T11:44:02.274Z,26.10
2019-01-24T11:45:02.244Z,25.90
2019-01-24T11:46:02.234Z,27.20
2019-01-24T11:47:02.221Z,26.40
2019-01-24T11:48:02.244Z,25.80
2019-01-24T11:49:02.200Z,27.20
2019-01-24T11:50:02.192Z,26.90
2019-01-24T11:51:02.184Z,28.80
2019-01-24T11:52:02.172Z,28.60
2019-01-24T11:53:02.156Z,28.10
2019-01-24T11:54:02.164Z,27.10
2019-01-24T11:55:02.138Z,27.30
2019-01-24T11:56:02.133Z,26.70
2019-01-24T11:57:02.116Z,27.00
2019-01-24T11:58:02.123Z,28.10
2019-01-24T11:59:02.099Z,28.70
2019-01-24T12:00:02.086Z,28.10
2019-01-24T12:01:02.074Z,28.30
2019-01-24T12:02:02.064Z,27.60
2019-01-24T12:03:02.055Z,28.60
2019-01-24T12:04:02.053Z,28.50
2019-01-24T12:05:02.035Z,29.60
2019-01-24T12:06:02.023Z,27.90
2019-01-24T12:07:04.166Z,28.60
2019-01-24T12:08:02.020Z,29.10
2019-01-24T12:09:01.990Z,30.10
2019-01-24T12:10:01.979Z,30.00
2019-01-24T12:11:01.988Z,29.00
2019-01-24T12:12:01.966Z,28.30
2019-01-24T12:13:01.950Z,27.50
2019-01-24T12:14:01.939Z,29.70
2019-01-24T12:15:01.926Z,28.30
2019-01-24T12:16:01.916Z,28.90
2019-01-24T12:17:01.926Z,29.10
2019-01-24T12:18:01.908Z,28.90
2019-01-24T12:19:01.886Z,28.30
2019-01-24T12:20:01.881Z,27.50
2019-01-24T12:21:01.865Z,27.90
2019-01-24T12:22:01.852Z,29.10
2019-01-24T12:23:01.881Z,29.20
2019-01-24T12:24:01.831Z,28.10
2019-01-24T12:25:01.822Z,28.00
2019-01-24T12:26:01.817Z,29.60
2019-01-24T12:27:01.801Z,27.00
2019-01-24T12:28:01.792Z,26.70
2019-01-24T12:29:01.800Z,29.70
2019-01-24T12:30:01.771Z,29.10
2019-01-24T12:31:01.769Z,30.30
2019-01-24T12:32:01.750Z,29.20
2019-01-24T12:33:01.736Z,28.00
2019-01-24T12:34:01.746Z,28.80
2019-01-24T12:35:01.720Z,29.00
2019-01-24T12:36:01.711Z,27.70
2019-01-24T12:37:01.702Z,27.80
2019-01-24T12:38:01.686Z,28.20
2019-01-24T12:39:01.677Z,27.30
2019-01-24T12:40:01.675Z,27.70
2019-01-24T12:41:01.654Z,29.20
2019-01-24T12:42:01.644Z,28.60
2019-01-24T12:43:01.668Z,27.20
2019-01-24T12:44:01.648Z,27.40
2019-01-24T12:45:01.626Z,27.30
2019-01-24T12:46:01.601Z,27.10
2019-01-24T12:47:01.590Z,27.80
2019-01-24T12:48:01.584Z,27.90
2019-01-24T12:49:01.569Z,26.90
2019-01-24T12:50:01.573Z,27.00
2019-01-24T12:51:01.561Z,28.30
2019-01-24T12:52:01.539Z,27.40
2019-01-24T12:53:01.526Z,26.10